WZZ4D1 LSZH-LIRF
Flight info
| Callsign | WZZ4D1 |
|---|---|
| Flight time | 1h 0m |
| Altitude | 33000 |
| Route | DEGES Y170 ARGAX DCT RESIA DCT GAVRA DCT RITEB |
| Aircraft | A20N/M-V/N |
Departure
| Time | 2026-05-05 13:56 |
|---|---|
| Airport | Zürich Airport (LSZH) |
Arrival
| Time | 2026-05-05 14:57 |
|---|---|
| Airport | Rome–Fiumicino Leonardo da Vinci International Airport (LIRF) |
| Time | Latitude | Longitude | Altitude | Speed | Heading |
|---|---|---|---|---|---|
| 2026-05-05 13:47 | 47.46368 | 8.54967 | 1384 ft | 0 kts | 247° |
| 2026-05-05 13:48 | 47.46369 | 8.54967 | 1384 ft | 0 kts | 247° |
| 2026-05-05 13:51 | 47.46368 | 8.54965 | 1384 ft | 2 kts | 247° |
| 2026-05-05 13:52 | 47.46329 | 8.54885 | 1382 ft | 13 kts | 191° |
| 2026-05-05 13:52 | 47.46242 | 8.54932 | 1383 ft | 14 kts | 154° |
| 2026-05-05 13:52 | 47.46149 | 8.54994 | 1384 ft | 16 kts | 154° |
| 2026-05-05 13:52 | 47.46021 | 8.55085 | 1383 ft | 21 kts | 155° |
| 2026-05-05 13:53 | 47.45900 | 8.55191 | 1385 ft | 19 kts | 113° |
| 2026-05-05 13:53 | 47.45884 | 8.55373 | 1388 ft | 16 kts | 97° |
| 2026-05-05 13:53 | 47.45871 | 8.55550 | 1391 ft | 18 kts | 95° |
| 2026-05-05 13:53 | 47.45858 | 8.55737 | 1395 ft | 18 kts | 95° |
| 2026-05-05 13:54 | 47.45845 | 8.55921 | 1399 ft | 18 kts | 95° |
| 2026-05-05 13:54 | 47.45833 | 8.56101 | 1401 ft | 17 kts | 95° |
| 2026-05-05 13:54 | 47.45820 | 8.56292 | 1403 ft | 19 kts | 95° |
| 2026-05-05 13:54 | 47.45804 | 8.56502 | 1408 ft | 21 kts | 96° |
| 2026-05-05 13:55 | 47.45788 | 8.56713 | 1410 ft | 19 kts | 96° |
| 2026-05-05 13:55 | 47.45776 | 8.56902 | 1413 ft | 17 kts | 95° |
| 2026-05-05 13:55 | 47.45723 | 8.57033 | 1416 ft | 14 kts | 167° |
| 2026-05-05 13:55 | 47.45670 | 8.56918 | 1415 ft | 23 kts | 273° |
| 2026-05-05 13:56 | 47.45711 | 8.56320 | 1406 ft | 96 kts | 275° |
| 2026-05-05 13:56 | 47.45807 | 8.55017 | 1386 ft | 158 kts | 276° |
| 2026-05-05 13:56 | 47.45930 | 8.53320 | 1846 ft | 170 kts | 275° |
| 2026-05-05 13:56 | 47.46051 | 8.51600 | 2574 ft | 172 kts | 275° |
| 2026-05-05 13:57 | 47.46173 | 8.49864 | 3284 ft | 173 kts | 274° |
| 2026-05-05 13:57 | 47.46233 | 8.48029 | 3723 ft | 188 kts | 259° |
| 2026-05-05 13:57 | 47.45660 | 8.46269 | 4130 ft | 204 kts | 226° |
| 2026-05-05 13:57 | 47.44377 | 8.45238 | 4552 ft | 223 kts | 189° |
| 2026-05-05 13:58 | 47.42782 | 8.45637 | 4901 ft | 251 kts | 150° |
| 2026-05-05 13:58 | 47.41504 | 8.47474 | 5432 ft | 270 kts | 126° |
| 2026-05-05 13:58 | 47.40490 | 8.49836 | 6204 ft | 279 kts | 122° |
| 2026-05-05 13:58 | 47.39500 | 8.52305 | 7145 ft | 281 kts | 122° |
| 2026-05-05 13:59 | 47.37465 | 8.57201 | 9037 ft | 284 kts | 123° |
| 2026-05-05 13:59 | 47.36426 | 8.59618 | 9935 ft | 286 kts | 123° |
| 2026-05-05 14:00 | 47.34189 | 8.64730 | 11119 ft | 313 kts | 124° |
| 2026-05-05 14:00 | 47.32964 | 8.67498 | 11544 ft | 331 kts | 126° |
| 2026-05-05 14:00 | 47.31670 | 8.70415 | 11933 ft | 350 kts | 125° |
| 2026-05-05 14:00 | 47.30309 | 8.73473 | 12276 ft | 368 kts | 125° |
| 2026-05-05 14:01 | 47.28876 | 8.76691 | 12590 ft | 385 kts | 125° |
| 2026-05-05 14:01 | 47.27389 | 8.80029 | 13059 ft | 394 kts | 126° |
| 2026-05-05 14:01 | 47.25891 | 8.83396 | 13762 ft | 398 kts | 126° |
| 2026-05-05 14:01 | 47.24349 | 8.86849 | 14326 ft | 405 kts | 126° |
| 2026-05-05 14:02 | 47.22802 | 8.90307 | 14881 ft | 412 kts | 126° |
| 2026-05-05 14:02 | 47.21219 | 8.93840 | 15533 ft | 416 kts | 126° |
| 2026-05-05 14:02 | 47.19618 | 8.97410 | 16144 ft | 420 kts | 126° |
| 2026-05-05 14:02 | 47.17997 | 9.01020 | 16746 ft | 425 kts | 126° |
| 2026-05-05 14:03 | 47.16385 | 9.04605 | 17325 ft | 429 kts | 126° |
| 2026-05-05 14:03 | 47.14732 | 9.08280 | 17878 ft | 433 kts | 126° |
| 2026-05-05 14:03 | 47.13044 | 9.12024 | 18422 ft | 438 kts | 126° |
| 2026-05-05 14:03 | 47.11378 | 9.15714 | 18963 ft | 441 kts | 126° |
| 2026-05-05 14:04 | 47.09667 | 9.19497 | 19521 ft | 444 kts | 126° |
| 2026-05-05 14:04 | 47.07970 | 9.23245 | 20048 ft | 447 kts | 126° |
| 2026-05-05 14:04 | 47.06171 | 9.26977 | 20540 ft | 448 kts | 130° |
| 2026-05-05 14:04 | 47.04167 | 9.30505 | 21024 ft | 449 kts | 135° |
| 2026-05-05 14:05 | 47.02005 | 9.33746 | 21496 ft | 450 kts | 140° |
| 2026-05-05 14:05 | 46.99676 | 9.36861 | 21965 ft | 452 kts | 141° |
| 2026-05-05 14:05 | 46.97345 | 9.39926 | 22430 ft | 454 kts | 141° |
| 2026-05-05 14:05 | 46.94997 | 9.43004 | 22886 ft | 456 kts | 141° |
| 2026-05-05 14:06 | 46.92628 | 9.46110 | 23312 ft | 459 kts | 141° |
| 2026-05-05 14:06 | 46.90260 | 9.49214 | 23719 ft | 461 kts | 141° |
| 2026-05-05 14:06 | 46.87848 | 9.52375 | 24178 ft | 462 kts | 141° |
| 2026-05-05 14:06 | 46.85493 | 9.55461 | 24711 ft | 460 kts | 141° |
| 2026-05-05 14:07 | 46.83116 | 9.58575 | 25240 ft | 459 kts | 141° |
| 2026-05-05 14:07 | 46.80746 | 9.61673 | 25738 ft | 458 kts | 141° |
| 2026-05-05 14:07 | 46.78394 | 9.64748 | 26212 ft | 457 kts | 142° |
| 2026-05-05 14:07 | 46.76010 | 9.67858 | 26676 ft | 456 kts | 142° |
| 2026-05-05 14:08 | 46.73680 | 9.70895 | 27145 ft | 455 kts | 142° |
| 2026-05-05 14:08 | 46.71311 | 9.73977 | 27619 ft | 454 kts | 142° |
| 2026-05-05 14:08 | 46.68959 | 9.77034 | 28094 ft | 453 kts | 143° |
| 2026-05-05 14:08 | 46.66651 | 9.80031 | 28557 ft | 451 kts | 143° |
| 2026-05-05 14:09 | 46.64314 | 9.83061 | 29012 ft | 450 kts | 143° |
| 2026-05-05 14:09 | 46.61969 | 9.86098 | 29439 ft | 450 kts | 143° |
| 2026-05-05 14:09 | 46.59636 | 9.89117 | 29844 ft | 450 kts | 143° |
| 2026-05-05 14:09 | 46.57311 | 9.92120 | 30265 ft | 449 kts | 143° |
| 2026-05-05 14:10 | 46.55002 | 9.95099 | 30671 ft | 448 kts | 143° |
| 2026-05-05 14:10 | 46.52664 | 9.98067 | 31069 ft | 447 kts | 145° |
| 2026-05-05 14:10 | 46.50221 | 10.00879 | 31436 ft | 445 kts | 148° |
| 2026-05-05 14:10 | 46.47715 | 10.03456 | 31725 ft | 445 kts | 151° |
| 2026-05-05 14:11 | 46.45120 | 10.05828 | 31978 ft | 445 kts | 154° |
| 2026-05-05 14:11 | 46.42392 | 10.08030 | 32234 ft | 445 kts | 157° |
| 2026-05-05 14:11 | 46.39638 | 10.09989 | 32508 ft | 444 kts | 159° |
| 2026-05-05 14:11 | 46.36843 | 10.11917 | 32766 ft | 445 kts | 159° |
| 2026-05-05 14:12 | 46.34055 | 10.13845 | 32940 ft | 448 kts | 159° |
| 2026-05-05 14:12 | 46.31233 | 10.15794 | 32951 ft | 449 kts | 159° |
| 2026-05-05 14:12 | 46.25621 | 10.19666 | 32970 ft | 449 kts | 159° |
| 2026-05-05 14:13 | 46.19972 | 10.23555 | 32973 ft | 450 kts | 159° |
| 2026-05-05 14:13 | 46.14336 | 10.27425 | 32986 ft | 450 kts | 159° |
| 2026-05-05 14:14 | 46.08669 | 10.31307 | 32984 ft | 451 kts | 159° |
| 2026-05-05 14:14 | 46.03016 | 10.35170 | 32980 ft | 452 kts | 159° |
| 2026-05-05 14:15 | 45.97343 | 10.39038 | 32978 ft | 452 kts | 159° |
| 2026-05-05 14:15 | 45.91690 | 10.42884 | 32983 ft | 453 kts | 159° |
| 2026-05-05 14:16 | 45.85964 | 10.46773 | 32975 ft | 454 kts | 159° |
| 2026-05-05 14:16 | 45.80258 | 10.50637 | 32978 ft | 454 kts | 159° |
| 2026-05-05 14:17 | 45.74575 | 10.54477 | 32972 ft | 454 kts | 159° |
| 2026-05-05 14:17 | 45.68838 | 10.58345 | 32972 ft | 454 kts | 159° |
| 2026-05-05 14:18 | 45.63128 | 10.62185 | 32968 ft | 454 kts | 159° |
| 2026-05-05 14:18 | 45.57430 | 10.66009 | 32964 ft | 454 kts | 160° |
| 2026-05-05 14:19 | 45.51701 | 10.69848 | 32962 ft | 455 kts | 160° |
| 2026-05-05 14:19 | 45.45985 | 10.73665 | 32959 ft | 455 kts | 160° |
| 2026-05-05 14:20 | 45.40260 | 10.77483 | 32957 ft | 456 kts | 160° |
| 2026-05-05 14:20 | 45.34523 | 10.81297 | 32961 ft | 456 kts | 160° |
| 2026-05-05 14:21 | 45.28785 | 10.85106 | 32960 ft | 457 kts | 160° |
| 2026-05-05 14:21 | 45.23031 | 10.88915 | 32953 ft | 457 kts | 160° |
| 2026-05-05 14:22 | 45.17274 | 10.92720 | 32950 ft | 457 kts | 160° |
| 2026-05-05 14:22 | 45.11511 | 10.96518 | 32947 ft | 458 kts | 160° |
| 2026-05-05 14:23 | 45.05732 | 11.00318 | 32943 ft | 459 kts | 160° |
| 2026-05-05 14:23 | 44.99946 | 11.04114 | 32938 ft | 458 kts | 160° |
| 2026-05-05 14:24 | 44.94165 | 11.07900 | 32939 ft | 459 kts | 160° |
| 2026-05-05 14:24 | 44.88356 | 11.11695 | 32942 ft | 459 kts | 160° |
| 2026-05-05 14:25 | 44.82563 | 11.15471 | 32940 ft | 460 kts | 160° |
| 2026-05-05 14:25 | 44.76739 | 11.19260 | 32944 ft | 461 kts | 160° |
| 2026-05-05 14:26 | 44.70961 | 11.23010 | 32946 ft | 461 kts | 161° |
| 2026-05-05 14:26 | 44.65101 | 11.26804 | 32947 ft | 461 kts | 161° |
| 2026-05-05 14:27 | 44.59298 | 11.30554 | 32950 ft | 463 kts | 161° |
| 2026-05-05 14:27 | 44.53446 | 11.34324 | 32953 ft | 463 kts | 161° |
| 2026-05-05 14:28 | 44.47615 | 11.38075 | 32951 ft | 463 kts | 161° |
| 2026-05-05 14:28 | 44.41791 | 11.41815 | 32952 ft | 463 kts | 161° |
| 2026-05-05 14:29 | 44.35924 | 11.45571 | 32953 ft | 464 kts | 161° |
| 2026-05-05 14:29 | 44.30044 | 11.49329 | 32953 ft | 465 kts | 161° |
| 2026-05-05 14:30 | 44.24187 | 11.53063 | 32951 ft | 466 kts | 161° |
| 2026-05-05 14:30 | 44.18274 | 11.56824 | 32954 ft | 466 kts | 161° |
| 2026-05-05 14:31 | 44.12398 | 11.60554 | 32955 ft | 466 kts | 161° |
| 2026-05-05 14:31 | 44.06486 | 11.64297 | 32954 ft | 468 kts | 161° |
| 2026-05-05 14:32 | 44.00573 | 11.68039 | 32955 ft | 467 kts | 162° |
| 2026-05-05 14:32 | 43.94632 | 11.71784 | 32960 ft | 469 kts | 162° |
| 2026-05-05 14:33 | 43.88721 | 11.75504 | 32955 ft | 469 kts | 162° |
| 2026-05-05 14:33 | 43.82767 | 11.79244 | 32955 ft | 469 kts | 163° |
| 2026-05-05 14:34 | 43.76715 | 11.82474 | 32956 ft | 459 kts | 169° |
| 2026-05-05 14:34 | 43.73688 | 11.83712 | 32604 ft | 451 kts | 172° |
| 2026-05-05 14:34 | 43.70683 | 11.84710 | 31939 ft | 447 kts | 174° |
| 2026-05-05 14:35 | 43.67636 | 11.85668 | 31660 ft | 449 kts | 173° |
| 2026-05-05 14:35 | 43.64587 | 11.86630 | 31389 ft | 450 kts | 173° |
| 2026-05-05 14:35 | 43.61528 | 11.87602 | 31120 ft | 451 kts | 173° |
| 2026-05-05 14:35 | 43.58462 | 11.88575 | 30857 ft | 451 kts | 173° |
| 2026-05-05 14:36 | 43.55424 | 11.89542 | 30587 ft | 452 kts | 173° |
| 2026-05-05 14:36 | 43.52341 | 11.90520 | 30318 ft | 452 kts | 172° |
| 2026-05-05 14:36 | 43.49266 | 11.91495 | 30049 ft | 453 kts | 172° |
| 2026-05-05 14:36 | 43.46228 | 11.92459 | 29745 ft | 454 kts | 172° |
| 2026-05-05 14:37 | 43.43116 | 11.93445 | 29035 ft | 457 kts | 172° |
| 2026-05-05 14:37 | 43.40033 | 11.94421 | 28092 ft | 459 kts | 172° |
| 2026-05-05 14:37 | 43.36911 | 11.95406 | 27027 ft | 464 kts | 172° |
| 2026-05-05 14:37 | 43.33760 | 11.96398 | 25886 ft | 469 kts | 171° |
| 2026-05-05 14:38 | 43.30544 | 11.97410 | 24666 ft | 475 kts | 171° |
| 2026-05-05 14:38 | 43.27351 | 11.98414 | 23533 ft | 477 kts | 171° |
| 2026-05-05 14:38 | 43.24124 | 11.99432 | 22694 ft | 473 kts | 171° |
| 2026-05-05 14:38 | 43.20952 | 12.00435 | 21905 ft | 468 kts | 171° |
| 2026-05-05 14:39 | 43.17820 | 12.01423 | 21218 ft | 461 kts | 171° |
| 2026-05-05 14:39 | 43.14727 | 12.02399 | 20560 ft | 454 kts | 171° |
| 2026-05-05 14:39 | 43.11646 | 12.03367 | 19911 ft | 447 kts | 171° |
| 2026-05-05 14:39 | 43.08664 | 12.04302 | 19279 ft | 442 kts | 171° |
| 2026-05-05 14:40 | 43.05690 | 12.05235 | 18668 ft | 435 kts | 171° |
| 2026-05-05 14:40 | 43.02760 | 12.06152 | 18182 ft | 431 kts | 171° |
| 2026-05-05 14:40 | 42.99840 | 12.07062 | 17835 ft | 429 kts | 171° |
| 2026-05-05 14:40 | 42.96948 | 12.07963 | 17468 ft | 426 kts | 171° |
| 2026-05-05 14:41 | 42.94084 | 12.08855 | 17098 ft | 427 kts | 171° |
| 2026-05-05 14:41 | 42.91182 | 12.09756 | 16746 ft | 428 kts | 171° |
| 2026-05-05 14:41 | 42.88295 | 12.10654 | 16422 ft | 426 kts | 171° |
| 2026-05-05 14:41 | 42.85418 | 12.11550 | 16061 ft | 424 kts | 171° |
| 2026-05-05 14:42 | 42.82545 | 12.12443 | 15587 ft | 420 kts | 171° |
| 2026-05-05 14:42 | 42.79739 | 12.13316 | 15132 ft | 410 kts | 171° |
| 2026-05-05 14:42 | 42.76994 | 12.14168 | 14669 ft | 402 kts | 171° |
| 2026-05-05 14:42 | 42.74270 | 12.15010 | 14212 ft | 400 kts | 171° |
| 2026-05-05 14:43 | 42.71578 | 12.15838 | 13730 ft | 395 kts | 172° |
| 2026-05-05 14:43 | 42.68892 | 12.16149 | 13242 ft | 379 kts | 187° |
| 2026-05-05 14:43 | 42.66329 | 12.15637 | 12783 ft | 371 kts | 193° |
| 2026-05-05 14:43 | 42.63802 | 12.15023 | 12321 ft | 366 kts | 193° |
| 2026-05-05 14:44 | 42.61336 | 12.14421 | 11873 ft | 359 kts | 193° |
| 2026-05-05 14:44 | 42.58904 | 12.13835 | 11495 ft | 350 kts | 193° |
| 2026-05-05 14:44 | 42.56523 | 12.13270 | 11124 ft | 342 kts | 193° |
| 2026-05-05 14:44 | 42.54203 | 12.12722 | 10760 ft | 335 kts | 193° |
| 2026-05-05 14:45 | 42.51941 | 12.12191 | 10386 ft | 328 kts | 193° |
| 2026-05-05 14:45 | 42.49710 | 12.11669 | 10015 ft | 322 kts | 193° |
| 2026-05-05 14:45 | 42.47539 | 12.11162 | 9650 ft | 316 kts | 192° |
| 2026-05-05 14:45 | 42.45373 | 12.10658 | 9272 ft | 311 kts | 193° |
| 2026-05-05 14:46 | 42.43269 | 12.10168 | 8900 ft | 306 kts | 192° |
| 2026-05-05 14:46 | 42.41212 | 12.09691 | 8534 ft | 299 kts | 193° |
| 2026-05-05 14:46 | 42.39185 | 12.09310 | 8155 ft | 292 kts | 184° |
| 2026-05-05 14:46 | 42.37198 | 12.09759 | 7786 ft | 287 kts | 166° |
| 2026-05-05 14:47 | 42.35329 | 12.10563 | 7415 ft | 280 kts | 165° |
| 2026-05-05 14:47 | 42.33492 | 12.11374 | 7040 ft | 272 kts | 165° |
| 2026-05-05 14:47 | 42.31697 | 12.12154 | 6673 ft | 272 kts | 165° |
| 2026-05-05 14:47 | 42.29913 | 12.12918 | 6308 ft | 271 kts | 165° |
| 2026-05-05 14:48 | 42.28122 | 12.13680 | 5936 ft | 269 kts | 165° |
| 2026-05-05 14:48 | 42.26334 | 12.14438 | 5567 ft | 268 kts | 165° |
| 2026-05-05 14:48 | 42.24559 | 12.15189 | 5204 ft | 266 kts | 165° |
| 2026-05-05 14:48 | 42.22812 | 12.15929 | 5024 ft | 261 kts | 165° |
| 2026-05-05 14:49 | 42.21099 | 12.16655 | 4907 ft | 261 kts | 165° |
| 2026-05-05 14:49 | 42.19353 | 12.17392 | 4785 ft | 270 kts | 165° |
| 2026-05-05 14:49 | 42.17471 | 12.18183 | 4640 ft | 289 kts | 164° |
| 2026-05-05 14:49 | 42.15552 | 12.18960 | 4460 ft | 290 kts | 169° |
| 2026-05-05 14:50 | 42.13570 | 12.18951 | 4256 ft | 284 kts | 193° |
| 2026-05-05 14:50 | 42.11684 | 12.18318 | 3996 ft | 269 kts | 194° |
| 2026-05-05 14:50 | 42.09940 | 12.17754 | 3700 ft | 251 kts | 193° |
| 2026-05-05 14:50 | 42.08283 | 12.17280 | 3410 ft | 234 kts | 187° |
| 2026-05-05 14:51 | 42.06704 | 12.17191 | 3194 ft | 223 kts | 175° |
| 2026-05-05 14:51 | 42.05222 | 12.17522 | 3170 ft | 209 kts | 167° |
| 2026-05-05 14:51 | 42.03823 | 12.18067 | 3172 ft | 209 kts | 163° |
| 2026-05-05 14:51 | 42.02426 | 12.18671 | 2945 ft | 212 kts | 163° |
| 2026-05-05 14:52 | 42.01024 | 12.19280 | 2706 ft | 209 kts | 163° |
| 2026-05-05 14:52 | 41.99690 | 12.19848 | 2680 ft | 197 kts | 163° |
| 2026-05-05 14:52 | 41.98404 | 12.20388 | 2665 ft | 188 kts | 163° |
| 2026-05-05 14:52 | 41.97166 | 12.20903 | 2518 ft | 187 kts | 163° |
| 2026-05-05 14:53 | 41.95925 | 12.21419 | 2273 ft | 186 kts | 163° |
| 2026-05-05 14:53 | 41.94690 | 12.21933 | 2079 ft | 181 kts | 162° |
| 2026-05-05 14:53 | 41.93513 | 12.22424 | 1864 ft | 174 kts | 163° |
| 2026-05-05 14:53 | 41.92400 | 12.22889 | 1603 ft | 163 kts | 163° |
| 2026-05-05 14:54 | 41.91360 | 12.23323 | 1389 ft | 149 kts | 162° |
| 2026-05-05 14:54 | 41.90413 | 12.23719 | 1182 ft | 137 kts | 163° |
| 2026-05-05 14:54 | 41.89510 | 12.24096 | 1010 ft | 135 kts | 163° |
| 2026-05-05 14:54 | 41.88608 | 12.24472 | 843 ft | 135 kts | 162° |
| 2026-05-05 14:55 | 41.87719 | 12.24844 | 678 ft | 134 kts | 162° |
| 2026-05-05 14:55 | 41.86820 | 12.25219 | 499 ft | 134 kts | 162° |
| 2026-05-05 14:55 | 41.85932 | 12.25589 | 325 ft | 133 kts | 161° |
| 2026-05-05 14:55 | 41.85064 | 12.25960 | 144 ft | 128 kts | 162° |
| 2026-05-05 14:56 | 41.84240 | 12.26305 | 26 ft | 119 kts | 162° |
| 2026-05-05 14:56 | 41.83550 | 12.26587 | 11 ft | 90 kts | 162° |
| 2026-05-05 14:56 | 41.82994 | 12.26821 | 11 ft | 76 kts | 162° |
| 2026-05-05 14:56 | 41.82537 | 12.27011 | 10 ft | 59 kts | 162° |
| 2026-05-05 14:57 | 41.82243 | 12.27129 | 7 ft | 27 kts | 167° |
| 2026-05-05 14:57 | 41.82072 | 12.27138 | 9 ft | 22 kts | 197° |
| 2026-05-05 14:57 | 41.81925 | 12.27105 | 10 ft | 21 kts | 185° |
| 2026-05-05 14:57 | 41.81784 | 12.27059 | 10 ft | 20 kts | 199° |
| 2026-05-05 14:58 | 41.81649 | 12.27060 | 10 ft | 19 kts | 165° |
| 2026-05-05 14:58 | 41.81521 | 12.27116 | 10 ft | 18 kts | 161° |
| 2026-05-05 14:58 | 41.81398 | 12.27168 | 10 ft | 18 kts | 162° |
| 2026-05-05 14:58 | 41.81276 | 12.27217 | 10 ft | 18 kts | 163° |
| 2026-05-05 14:59 | 41.81150 | 12.27270 | 10 ft | 18 kts | 162° |
| 2026-05-05 14:59 | 41.81026 | 12.27323 | 10 ft | 18 kts | 163° |
| 2026-05-05 14:59 | 41.80900 | 12.27349 | 10 ft | 18 kts | 184° |
| 2026-05-05 14:59 | 41.80774 | 12.27330 | 10 ft | 18 kts | 188° |
| 2026-05-05 15:00 | 41.80665 | 12.27262 | 10 ft | 17 kts | 234° |
| 2026-05-05 15:00 | 41.80634 | 12.27165 | 10 ft | 17 kts | 250° |
| 2026-05-05 15:00 | 41.80578 | 12.26957 | 10 ft | 18 kts | 251° |
| 2026-05-05 15:00 | 41.80534 | 12.26796 | 10 ft | 18 kts | 249° |
| 2026-05-05 15:01 | 41.80487 | 12.26637 | 11 ft | 18 kts | 248° |
| 2026-05-05 15:01 | 41.80445 | 12.26484 | 13 ft | 17 kts | 250° |
| 2026-05-05 15:01 | 41.80377 | 12.26377 | 13 ft | 16 kts | 174° |
| 2026-05-05 15:01 | 41.80285 | 12.26361 | 13 ft | 12 kts | 229° |
| 2026-05-05 15:02 | 41.80236 | 12.26317 | 14 ft | 0 kts | 207° |